createdAt,value
2019-06-20T00:01:27.578Z,20.84
2019-06-20T00:04:00.974Z,20.84
2019-06-20T00:06:34.386Z,20.78
2019-06-20T00:09:08.697Z,20.79
2019-06-20T00:11:42.097Z,20.80
2019-06-20T00:14:15.752Z,20.79
2019-06-20T00:16:49.241Z,20.69
2019-06-20T00:19:22.623Z,20.58
2019-06-20T00:21:56.044Z,20.55
2019-06-20T00:24:29.666Z,20.67
2019-06-20T00:27:03.067Z,20.77
2019-06-20T00:29:36.461Z,20.84
2019-06-20T00:32:09.852Z,20.91
2019-06-20T00:34:43.258Z,21.01
2019-06-20T00:37:16.645Z,21.11
2019-06-20T00:39:50.034Z,21.19
2019-06-20T00:42:23.429Z,21.20
2019-06-20T00:44:57.799Z,21.19
2019-06-20T00:47:31.449Z,21.16
2019-06-20T00:50:05.867Z,21.25
2019-06-20T00:52:39.240Z,21.36
2019-06-20T00:55:12.641Z,21.44
2019-06-20T00:57:46.034Z,21.52
2019-06-20T01:00:21.632Z,21.62
2019-06-20T01:02:55.025Z,21.63
2019-06-20T01:05:28.507Z,21.63
2019-06-20T01:08:01.942Z,21.66
2019-06-20T01:10:35.613Z,21.70
2019-06-20T01:13:09.262Z,21.76
2019-06-20T01:15:42.731Z,21.79
2019-06-20T01:18:16.126Z,21.82
2019-06-20T01:20:49.757Z,21.84
2019-06-20T01:23:23.463Z,21.89
2019-06-20T01:25:57.114Z,22.02
2019-06-20T01:28:30.506Z,22.12
2019-06-20T01:31:03.907Z,22.15
2019-06-20T01:33:37.318Z,22.12
2019-06-20T01:36:10.725Z,22.05
2019-06-20T01:38:44.117Z,21.98
2019-06-20T01:41:17.503Z,21.89
2019-06-20T01:43:51.283Z,21.80
2019-06-20T01:46:24.677Z,21.70
2019-06-20T01:48:58.132Z,21.60
2019-06-20T01:51:31.546Z,21.51
2019-06-20T01:54:05.021Z,21.41
2019-06-20T01:56:38.397Z,21.29
2019-06-20T01:59:12.574Z,21.29
2019-06-20T02:01:46.220Z,21.18
2019-06-20T02:04:19.629Z,21.11
2019-06-20T02:06:53.098Z,21.07
2019-06-20T02:09:26.477Z,21.06
2019-06-20T02:12:00.138Z,21.01
2019-06-20T02:14:33.522Z,20.94
2019-06-20T02:17:07.174Z,20.86
2019-06-20T02:19:40.809Z,20.88
2019-06-20T02:22:14.213Z,20.90
2019-06-20T02:24:47.594Z,20.90
2019-06-20T02:27:21.668Z,20.84
2019-06-20T02:29:55.297Z,20.88
2019-06-20T02:32:28.699Z,20.88
2019-06-20T02:35:02.425Z,20.90
2019-06-20T02:37:35.826Z,20.87
2019-06-20T02:40:09.696Z,20.90
2019-06-20T02:42:43.413Z,20.91
2019-06-20T02:45:16.983Z,20.92
2019-06-20T02:47:50.409Z,20.94
2019-06-20T02:50:23.923Z,20.90
2019-06-20T02:52:59.689Z,20.88
2019-06-20T02:55:33.423Z,20.84
2019-06-20T02:58:06.828Z,20.79
2019-06-20T03:00:52.694Z,20.76
2019-06-20T03:03:27.238Z,20.74
2019-06-20T03:06:00.876Z,20.70
2019-06-20T03:08:34.342Z,20.71
2019-06-20T03:11:07.730Z,20.68
2019-06-20T03:13:41.430Z,20.60
2019-06-20T03:16:14.797Z,20.51
2019-06-20T03:18:48.425Z,20.56
2019-06-20T03:21:22.054Z,20.61
2019-06-20T03:23:55.467Z,20.58
2019-06-20T03:26:29.100Z,20.55
2019-06-20T03:29:02.747Z,20.59
2019-06-20T03:31:36.155Z,20.67
2019-06-20T03:34:09.793Z,20.76
2019-06-20T03:36:43.208Z,20.86
2019-06-20T03:39:16.839Z,20.89
2019-06-20T03:41:50.242Z,20.90
2019-06-20T03:44:23.644Z,20.83
2019-06-20T03:46:57.280Z,20.75
2019-06-20T03:49:30.935Z,20.77
2019-06-20T03:52:04.342Z,20.85
2019-06-20T03:54:37.810Z,20.91
2019-06-20T03:57:11.205Z,20.89
2019-06-20T03:59:44.610Z,20.83
2019-06-20T04:02:18.250Z,20.78
2019-06-20T04:04:51.892Z,20.79
2019-06-20T04:07:25.299Z,20.80
2019-06-20T04:09:58.707Z,20.83
2019-06-20T04:12:32.104Z,20.86
2019-06-20T04:15:18.713Z,20.86
2019-06-20T04:17:42.013Z,20.83
2019-06-20T04:20:15.938Z,20.82
2019-06-20T04:22:49.338Z,20.85
2019-06-20T04:25:22.816Z,20.85
2019-06-20T04:27:56.274Z,20.86
2019-06-20T04:30:29.752Z,20.81
2019-06-20T04:33:03.084Z,20.80
2019-06-20T04:35:36.510Z,20.86
2019-06-20T04:38:09.900Z,20.84
2019-06-20T04:40:43.304Z,20.80
2019-06-20T04:43:16.705Z,20.77
2019-06-20T04:45:51.744Z,20.76
2019-06-20T04:48:25.130Z,20.72
2019-06-20T04:50:58.788Z,20.62
2019-06-20T04:53:32.169Z,20.56
2019-06-20T04:56:05.976Z,20.51
2019-06-20T04:58:39.508Z,20.48
2019-06-20T05:01:12.989Z,20.50
2019-06-20T05:03:46.398Z,20.51
2019-06-20T05:06:19.822Z,20.51
2019-06-20T05:08:53.215Z,20.53
2019-06-20T05:11:26.618Z,20.57
2019-06-20T05:14:01.380Z,20.61
2019-06-20T05:16:34.778Z,20.67
2019-06-20T05:19:08.189Z,20.75
2019-06-20T05:21:41.595Z,20.81
2019-06-20T05:24:15.002Z,20.81
2019-06-20T05:26:48.649Z,20.85
2019-06-20T05:29:22.040Z,20.89
2019-06-20T05:31:55.427Z,21.00
2019-06-20T05:34:29.097Z,21.13
2019-06-20T05:37:02.486Z,21.22
2019-06-20T05:39:36.138Z,21.26
2019-06-20T05:42:09.541Z,21.31
2019-06-20T05:44:43.184Z,21.35
2019-06-20T05:47:17.790Z,21.39
2019-06-20T05:49:51.471Z,21.43
2019-06-20T05:52:24.858Z,21.46
2019-06-20T05:54:58.261Z,21.48
2019-06-20T05:57:31.909Z,21.49
2019-06-20T06:00:12.256Z,21.51
2019-06-20T06:02:45.656Z,21.56
2019-06-20T06:05:19.412Z,21.54
2019-06-20T06:07:53.047Z,21.35
2019-06-20T06:10:26.458Z,21.24
2019-06-20T06:12:59.866Z,21.28
2019-06-20T06:15:33.360Z,21.40
2019-06-20T06:18:06.993Z,21.47
2019-06-20T06:20:40.398Z,21.55
2019-06-20T06:23:13.785Z,21.58
2019-06-20T06:25:47.187Z,21.55
2019-06-20T06:28:20.577Z,21.49
2019-06-20T06:30:54.228Z,21.42
2019-06-20T06:33:27.631Z,21.29
2019-06-20T06:36:01.281Z,21.15
2019-06-20T06:38:34.871Z,21.05
2019-06-20T06:41:08.267Z,20.97
2019-06-20T06:43:42.259Z,20.90
2019-06-20T06:46:15.750Z,20.90
2019-06-20T06:48:49.379Z,20.98
2019-06-20T06:51:22.798Z,21.09
2019-06-20T06:53:56.207Z,21.18
2019-06-20T06:56:29.660Z,21.31
2019-06-20T06:59:03.052Z,21.38
2019-06-20T07:01:36.459Z,21.43
2019-06-20T07:04:09.854Z,21.48
2019-06-20T07:06:43.662Z,21.55
2019-06-20T07:09:16.990Z,21.63
2019-06-20T07:11:50.644Z,21.67
2019-06-20T07:14:24.029Z,21.69
2019-06-20T07:17:00.522Z,21.64
2019-06-20T07:19:32.561Z,21.63
2019-06-20T07:22:06.033Z,21.68
2019-06-20T07:24:39.447Z,21.77
2019-06-20T07:27:13.971Z,21.83
2019-06-20T07:29:48.539Z,21.90
2019-06-20T07:32:23.175Z,21.85
2019-06-20T07:34:56.563Z,22.00
2019-06-20T07:37:29.970Z,22.09
2019-06-20T07:40:05.354Z,22.15
2019-06-20T07:42:38.755Z,22.20
2019-06-20T07:45:12.792Z,22.23
2019-06-20T07:47:46.225Z,22.26
2019-06-20T07:50:19.839Z,22.31
2019-06-20T07:53:02.110Z,22.31
2019-06-20T07:55:28.520Z,22.32
2019-06-20T07:58:01.938Z,22.31
2019-06-20T08:00:35.354Z,22.28
2019-06-20T08:03:08.817Z,22.26
2019-06-20T08:05:42.260Z,22.21
2019-06-20T08:08:15.664Z,22.14
2019-06-20T08:10:49.057Z,22.18
2019-06-20T08:13:22.554Z,22.28
2019-06-20T08:15:55.982Z,22.38
2019-06-20T08:18:29.381Z,22.45
2019-06-20T08:21:02.838Z,22.49
2019-06-20T08:23:36.533Z,22.52
2019-06-20T08:26:10.102Z,22.56
2019-06-20T08:28:43.755Z,22.58
2019-06-20T08:31:17.392Z,22.61
2019-06-20T08:33:51.144Z,22.60
2019-06-20T08:36:25.565Z,22.59
2019-06-20T08:39:00.258Z,22.48
2019-06-20T08:41:34.028Z,22.44
2019-06-20T08:44:07.870Z,22.41
2019-06-20T08:46:41.281Z,22.36
2019-06-20T08:49:14.936Z,22.28
2019-06-20T08:51:48.354Z,22.28
2019-06-20T08:54:21.752Z,22.38
2019-06-20T08:56:57.063Z,22.47
2019-06-20T08:59:30.311Z,22.53
2019-06-20T09:04:38.207Z,22.59
2019-06-20T09:07:11.645Z,22.66
2019-06-20T09:09:45.038Z,22.70
2019-06-20T09:12:18.453Z,22.72
2019-06-20T09:14:52.620Z,22.73
2019-06-20T09:17:26.986Z,22.81
2019-06-20T09:20:00.385Z,22.92
2019-06-20T09:22:33.787Z,22.97
2019-06-20T09:25:08.024Z,23.01
2019-06-20T09:27:41.525Z,23.05
2019-06-20T09:30:16.993Z,23.14
2019-06-20T09:32:52.273Z,23.21
2019-06-20T09:35:25.839Z,23.35
2019-06-20T09:37:59.472Z,23.52
2019-06-20T09:40:32.845Z,23.67
2019-06-20T09:43:06.426Z,23.78
2019-06-20T09:45:39.972Z,23.89
2019-06-20T09:48:13.378Z,23.97
2019-06-20T09:50:49.350Z,24.07
2019-06-20T09:53:22.092Z,24.24
2019-06-20T09:55:55.768Z,24.34
2019-06-20T09:58:29.190Z,24.43
2019-06-20T10:01:02.581Z,24.57
2019-06-20T10:03:35.988Z,24.73
2019-06-20T10:06:13.914Z,24.89
2019-06-20T10:08:46.601Z,25.04
2019-06-20T10:11:19.903Z,25.18
2019-06-20T10:13:54.289Z,25.42
2019-06-20T10:16:28.017Z,25.55
2019-06-20T10:19:01.525Z,25.56
2019-06-20T10:21:34.986Z,25.67
2019-06-20T10:24:08.517Z,25.76
2019-06-20T10:26:41.902Z,25.70
2019-06-20T10:29:15.436Z,25.66
2019-06-20T10:31:49.097Z,25.54
2019-06-20T10:34:22.494Z,25.48
2019-06-20T10:36:57.075Z,25.54
2019-06-20T10:39:30.580Z,25.58
2019-06-20T10:42:04.103Z,25.57
2019-06-20T10:44:37.499Z,25.61
2019-06-20T10:47:10.996Z,25.72
2019-06-20T10:49:45.044Z,25.78
2019-06-20T10:52:19.823Z,25.90
2019-06-20T10:54:53.474Z,26.07
2019-06-20T10:57:26.939Z,26.11
2019-06-20T11:00:00.409Z,26.29
2019-06-20T11:02:33.816Z,26.41
2019-06-20T11:05:07.730Z,26.52
2019-06-20T11:07:42.482Z,26.71
2019-06-20T11:10:17.027Z,26.90
2019-06-20T11:12:55.745Z,27.03
2019-06-20T11:15:26.181Z,27.06
2019-06-20T11:17:59.633Z,26.94
2019-06-20T11:20:33.797Z,27.01
2019-06-20T11:23:07.363Z,27.00
2019-06-20T11:25:42.007Z,26.97
2019-06-20T11:28:15.433Z,27.04
2019-06-20T11:30:59.538Z,26.90
2019-06-20T11:33:24.247Z,26.60
2019-06-20T11:35:57.888Z,26.40
2019-06-20T11:38:31.350Z,26.28
2019-06-20T11:41:04.821Z,26.05
2019-06-20T11:43:38.446Z,25.87
2019-06-20T11:46:11.799Z,25.66
2019-06-20T11:48:47.109Z,25.43
2019-06-20T11:51:20.763Z,25.34
2019-06-20T11:53:54.166Z,25.25
2019-06-20T11:56:27.554Z,25.07
2019-06-20T11:59:01.014Z,25.04
2019-06-20T12:01:55.168Z,25.00
2019-06-20T12:04:29.075Z,24.89
2019-06-20T12:07:02.454Z,24.98
2019-06-20T12:09:36.614Z,25.21
2019-06-20T12:12:10.128Z,25.65
2019-06-20T12:14:44.298Z,25.98
2019-06-20T12:17:17.674Z,26.11
2019-06-20T12:19:51.073Z,26.14
2019-06-20T12:22:24.466Z,26.41
2019-06-20T12:24:57.883Z,26.39
2019-06-20T12:27:31.349Z,26.38
2019-06-20T12:30:07.351Z,26.63
2019-06-20T12:32:42.361Z,26.84
2019-06-20T12:35:16.022Z,27.02
2019-06-20T12:37:50.126Z,27.35
2019-06-20T12:40:24.252Z,27.59
2019-06-20T12:42:57.649Z,27.69
2019-06-20T12:45:31.070Z,27.73
2019-06-20T12:48:04.532Z,27.67
2019-06-20T12:50:38.515Z,27.52
2019-06-20T12:53:13.323Z,27.62
2019-06-20T12:55:47.541Z,27.35
2019-06-20T12:58:20.982Z,27.38
2019-06-20T13:00:54.530Z,27.46
2019-06-20T13:03:27.878Z,27.33
2019-06-20T13:06:01.345Z,27.27
2019-06-20T13:08:35.183Z,27.18
2019-06-20T13:11:09.007Z,27.18
2019-06-20T13:13:53.342Z,27.09
2019-06-20T13:16:26.875Z,27.07
2019-06-20T13:19:00.627Z,27.00
2019-06-20T13:21:34.104Z,26.94
2019-06-20T13:24:07.563Z,26.89
2019-06-20T13:26:42.348Z,26.80
2019-06-20T13:29:15.766Z,26.78
2019-06-20T13:32:02.089Z,26.77
2019-06-20T13:34:24.351Z,26.75
2019-06-20T13:36:57.854Z,26.75
2019-06-20T13:39:31.347Z,26.69
2019-06-20T13:42:04.851Z,26.65
2019-06-20T13:44:39.620Z,26.63
2019-06-20T13:47:13.519Z,26.73
2019-06-20T13:49:47.733Z,26.78
2019-06-20T13:52:21.372Z,26.80
2019-06-20T13:54:55.365Z,26.79
2019-06-20T13:57:28.750Z,26.78
2019-06-20T14:00:02.130Z,26.79
2019-06-20T14:02:35.527Z,26.77
2019-06-20T14:05:10.278Z,26.68
2019-06-20T14:07:48.339Z,26.54
2019-06-20T14:10:19.665Z,26.52
2019-06-20T14:12:53.100Z,26.33
2019-06-20T14:15:26.494Z,26.34
2019-06-20T14:17:59.900Z,26.32
2019-06-20T14:20:33.286Z,26.30
2019-06-20T14:23:06.682Z,26.28
2019-06-20T14:25:40.323Z,26.17
2019-06-20T14:28:13.727Z,26.15
2019-06-20T14:30:48.346Z,26.15
2019-06-20T14:33:21.791Z,26.07
2019-06-20T14:35:55.449Z,25.82
2019-06-20T14:38:28.946Z,25.90
2019-06-20T14:41:02.342Z,25.87
2019-06-20T14:43:35.757Z,25.76
2019-06-20T14:46:09.387Z,25.74
2019-06-20T14:48:43.555Z,25.67
2019-06-20T14:51:17.908Z,25.62
2019-06-20T14:53:52.701Z,25.56
2019-06-20T14:56:26.142Z,25.40
2019-06-20T14:58:59.577Z,25.17
2019-06-20T15:01:32.975Z,24.92
2019-06-20T15:04:06.630Z,24.75
2019-06-20T15:06:40.021Z,24.55
2019-06-20T15:09:13.419Z,24.30
2019-06-20T15:11:48.194Z,24.28
2019-06-20T15:14:22.013Z,24.04
2019-06-20T15:16:55.653Z,23.87
2019-06-20T15:19:29.328Z,23.69
2019-06-20T15:22:02.729Z,23.46
2019-06-20T15:24:36.145Z,23.33
2019-06-20T15:27:09.624Z,23.16
2019-06-20T15:29:43.018Z,22.83
2019-06-20T15:32:16.664Z,22.65
2019-06-20T15:34:51.589Z,22.47
2019-06-20T15:37:25.227Z,22.24
2019-06-20T15:39:58.649Z,22.07
2019-06-20T15:42:32.335Z,21.96
2019-06-20T15:45:07.330Z,21.91
2019-06-20T15:47:40.810Z,21.90
2019-06-20T15:50:14.634Z,21.93
2019-06-20T15:52:48.275Z,21.96
2019-06-20T15:55:21.670Z,22.00
2019-06-20T15:57:55.071Z,22.00
2019-06-20T16:00:28.534Z,22.08
2019-06-20T16:03:09.896Z,22.15
2019-06-20T16:05:40.405Z,22.15
2019-06-20T16:08:12.215Z,22.00
2019-06-20T16:10:45.748Z,21.94
2019-06-20T16:13:19.404Z,22.03
2019-06-20T16:15:55.358Z,22.15
2019-06-20T16:18:28.772Z,22.23
2019-06-20T16:21:02.188Z,22.29
2019-06-20T16:23:36.555Z,22.36
2019-06-20T16:26:09.941Z,22.40
2019-06-20T16:28:43.343Z,22.46
2019-06-20T16:31:26.623Z,22.48
2019-06-20T16:33:52.880Z,22.50
2019-06-20T16:36:26.272Z,22.51
2019-06-20T16:38:59.929Z,22.28
2019-06-20T16:41:33.324Z,22.05
2019-06-20T16:44:06.793Z,22.07
2019-06-20T16:46:40.178Z,22.36
2019-06-20T16:49:13.582Z,22.61
2019-06-20T16:51:47.223Z,22.78
2019-06-20T16:54:20.903Z,22.93
2019-06-20T16:56:54.526Z,23.01
2019-06-20T16:59:27.979Z,23.10
2019-06-20T17:02:01.399Z,23.17
2019-06-20T17:04:34.885Z,23.21
2019-06-20T17:07:08.537Z,23.28
2019-06-20T17:09:41.950Z,23.39
2019-06-20T17:12:15.346Z,23.42
2019-06-20T17:14:48.744Z,23.46
2019-06-20T17:17:22.394Z,23.73
2019-06-20T17:19:56.047Z,24.08
2019-06-20T17:22:29.457Z,24.40
2019-06-20T17:25:03.129Z,24.42
2019-06-20T17:27:36.646Z,24.34
2019-06-20T17:30:12.236Z,24.31
2019-06-20T17:32:45.634Z,24.22
2019-06-20T17:35:19.378Z,24.11
2019-06-20T17:37:52.771Z,24.06
2019-06-20T17:40:26.324Z,24.00
2019-06-20T17:42:59.742Z,23.96
2019-06-20T17:45:33.190Z,23.89
2019-06-20T17:48:06.577Z,23.82
2019-06-20T17:50:40.008Z,23.84
2019-06-20T17:53:13.390Z,24.02
2019-06-20T17:55:46.782Z,24.24
2019-06-20T17:58:20.409Z,24.10
2019-06-20T18:00:53.907Z,23.99
2019-06-20T18:03:27.573Z,24.07
2019-06-20T18:06:00.957Z,23.93
2019-06-20T18:08:35.273Z,23.79
2019-06-20T18:11:08.668Z,23.65
2019-06-20T18:13:42.045Z,23.55
2019-06-20T18:16:25.151Z,23.46
2019-06-20T18:18:50.567Z,23.41
2019-06-20T18:21:24.205Z,23.36
2019-06-20T18:23:57.590Z,23.28
2019-06-20T18:26:31.006Z,23.22
2019-06-20T18:29:04.470Z,23.17
2019-06-20T18:31:37.867Z,23.11
2019-06-20T18:34:11.503Z,23.12
2019-06-20T18:36:44.901Z,23.23
2019-06-20T18:39:18.295Z,23.29
2019-06-20T18:41:51.702Z,23.37
2019-06-20T18:44:25.830Z,23.42
2019-06-20T18:46:59.241Z,23.43
2019-06-20T18:49:32.641Z,23.32
2019-06-20T18:52:06.038Z,23.06
2019-06-20T18:54:39.430Z,22.89
2019-06-20T18:57:12.829Z,22.80
2019-06-20T18:59:46.241Z,22.79
2019-06-20T19:02:19.868Z,22.77
2019-06-20T19:04:53.262Z,22.69
2019-06-20T19:07:26.645Z,22.52
2019-06-20T19:10:00.300Z,22.31
2019-06-20T19:12:33.935Z,22.13
2019-06-20T19:15:08.490Z,21.97
2019-06-20T19:17:41.872Z,21.83
2019-06-20T19:20:15.882Z,21.79
2019-06-20T19:22:49.336Z,21.78
2019-06-20T19:25:22.731Z,21.78
2019-06-20T19:27:56.383Z,21.76
2019-06-20T19:30:38.461Z,21.68
2019-06-20T19:33:11.849Z,21.64
2019-06-20T19:35:45.254Z,21.63
2019-06-20T19:38:18.647Z,21.62
2019-06-20T19:40:52.390Z,21.63
2019-06-20T19:43:25.782Z,21.62
2019-06-20T19:45:59.183Z,21.62
2019-06-20T19:48:32.575Z,21.55
2019-06-20T19:51:06.114Z,21.47
2019-06-20T19:53:39.871Z,21.34
2019-06-20T19:56:13.338Z,21.19
2019-06-20T19:58:46.727Z,21.15
2019-06-20T20:01:20.375Z,21.13
2019-06-20T20:03:53.770Z,21.10
2019-06-20T20:06:27.457Z,21.08
2019-06-20T20:09:01.180Z,21.08
2019-06-20T20:11:34.583Z,21.02
2019-06-20T20:14:07.968Z,20.90
2019-06-20T20:16:41.373Z,20.86
2019-06-20T20:19:14.763Z,20.76
2019-06-20T20:21:48.165Z,20.40
2019-06-20T20:24:21.591Z,20.41
2019-06-20T20:26:54.949Z,20.44
2019-06-20T20:29:28.337Z,20.45
2019-06-20T20:32:01.736Z,20.42
2019-06-20T20:34:35.131Z,20.43
2019-06-20T20:37:08.531Z,20.41
2019-06-20T20:39:41.966Z,20.38
2019-06-20T20:42:17.728Z,20.34
2019-06-20T20:44:50.431Z,20.23
2019-06-20T20:47:23.850Z,20.16
2019-06-20T20:49:57.492Z,20.13
2019-06-20T20:52:30.894Z,20.16
2019-06-20T20:55:06.967Z,20.15
2019-06-20T20:57:40.379Z,20.18
2019-06-20T21:00:28.545Z,20.19
2019-06-20T21:03:01.943Z,20.21
2019-06-20T21:05:50.430Z,20.05
2019-06-20T21:08:10.470Z,19.90
2019-06-20T21:10:44.898Z,19.66
2019-06-20T21:13:18.368Z,19.60
2019-06-20T21:15:51.762Z,19.60
2019-06-20T21:18:25.167Z,19.64
2019-06-20T21:20:58.564Z,19.65
2019-06-20T21:23:31.963Z,19.66
2019-06-20T21:26:05.419Z,19.59
2019-06-20T21:28:38.814Z,19.54
2019-06-20T21:31:12.650Z,19.50
2019-06-20T21:33:46.064Z,19.47
2019-06-20T21:36:19.455Z,19.42
2019-06-20T21:38:52.921Z,19.40
2019-06-20T21:41:26.368Z,19.38
2019-06-20T21:43:59.731Z,19.38
2019-06-20T21:46:33.128Z,19.37
2019-06-20T21:49:06.628Z,19.38
2019-06-20T21:51:40.070Z,19.32
2019-06-20T21:54:13.478Z,19.32
2019-06-20T21:56:46.859Z,19.37
2019-06-20T21:59:20.259Z,19.41
2019-06-20T22:01:53.903Z,19.40
2019-06-20T22:04:27.655Z,19.39
2019-06-20T22:07:01.284Z,19.42
2019-06-20T22:09:34.706Z,19.42
2019-06-20T22:12:08.081Z,19.46
2019-06-20T22:14:41.556Z,19.51
2019-06-20T22:17:15.213Z,19.56
2019-06-20T22:19:48.632Z,19.62
2019-06-20T22:22:22.093Z,19.68
2019-06-20T22:24:55.499Z,19.75
2019-06-20T22:27:29.166Z,19.79
2019-06-20T22:30:03.894Z,19.85
2019-06-20T22:32:37.837Z,19.90
2019-06-20T22:35:12.077Z,19.96
2019-06-20T22:37:45.470Z,19.97
2019-06-20T22:40:19.000Z,19.97
2019-06-20T22:42:52.393Z,19.98
2019-06-20T22:45:26.025Z,20.00
2019-06-20T22:47:59.431Z,20.01
2019-06-20T22:50:33.099Z,20.02
2019-06-20T22:53:06.904Z,20.04
2019-06-20T22:55:40.283Z,20.04
2019-06-20T22:58:13.937Z,20.03
2019-06-20T23:00:47.414Z,20.05
2019-06-20T23:03:20.978Z,20.06
2019-06-20T23:05:54.612Z,20.06
2019-06-20T23:08:28.017Z,20.04
2019-06-20T23:11:01.406Z,20.03
2019-06-20T23:13:35.077Z,19.82
2019-06-20T23:16:08.699Z,19.65
2019-06-20T23:18:42.091Z,19.50
2019-06-20T23:21:15.482Z,19.46
2019-06-20T23:23:48.882Z,19.41
2019-06-20T23:26:22.276Z,19.41
2019-06-20T23:29:13.597Z,19.44
2019-06-20T23:31:47.235Z,19.28
2019-06-20T23:34:20.698Z,19.14
2019-06-20T23:36:54.090Z,19.13
2019-06-20T23:39:28.522Z,19.16
2019-06-20T23:42:02.069Z,19.18
2019-06-20T23:44:35.472Z,19.23
2019-06-20T23:47:09.108Z,19.21
2019-06-20T23:49:42.518Z,19.15
2019-06-20T23:52:20.235Z,18.97
2019-06-20T23:54:53.624Z,18.98
2019-06-20T23:57:27.018Z,19.04
